Time;durP1;ratioP1;P1;durP2;ratioP2;P2;SDS_P1;SDS_P2;PMS_P1;PMS_P2;Temp;Humidity;BMP_temperature;BMP_pressure;BME280_temperature;BME280_humidity;BME280_pressure;Samples;Min_cycle;Max_cycle;Signal;HPM_P1;HPM_P2
2023/11/02 00:03:31;;;;;;;3.47;0.80;;;12.30;1.00;;;;;;5016274;28;20573;-76
2023/11/02 00:06:25;;;;;;;2.90;1.00;;;12.30;1.00;;;;;;5032008;28;20496;-76
2023/11/02 00:09:30;;;;;;;4.53;0.60;;;12.30;1.00;;;;;;5006305;28;20963;-76
2023/11/02 00:12:14;;;;;;;2.37;1.63;;;12.40;1.00;;;;;;5023113;28;20414;-76
2023/11/02 00:14:53;;;;;;;1.27;0.60;;;12.40;1.00;;;;;;5026364;28;20412;-76
2023/11/02 00:17:39;;;;;;;4.70;0.80;;;12.40;1.00;;;;;;5034752;28;20492;-76
2023/11/02 00:20:28;;;;;;;0.77;0.77;;;12.40;1.00;;;;;;5010419;28;20804;-76
2023/11/02 00:26:41;;;;;;;2.33;0.77;;;12.30;1.00;;;;;;5025765;28;20446;-78
2023/11/02 00:29:11;;;;;;;1.00;1.00;;;12.20;1.00;;;;;;5015465;28;20435;-76
2023/11/02 00:31:55;;;;;;;2.57;0.77;;;12.30;1.00;;;;;;5029181;28;20898;-77
2023/11/02 00:34:21;;;;;;;10.03;0.80;;;12.20;1.00;;;;;;5013441;28;20527;-76
2023/11/02 00:36:47;;;;;;;4.23;1.00;;;12.20;1.00;;;;;;5012780;28;20418;-76
2023/11/02 00:39:13;;;;;;;1.23;0.90;;;12.30;1.00;;;;;;5018077;28;20451;-76
2023/11/02 00:41:42;;;;;;;0.60;0.60;;;12.30;1.00;;;;;;5017296;28;20246;-77
2023/11/02 00:44:07;;;;;;;2.63;0.97;;;12.30;1.00;;;;;;5026848;28;20716;-77
2023/11/02 00:46:36;;;;;;;0.70;0.67;;;12.30;1.00;;;;;;5029673;28;20433;-76
2023/11/02 00:49:23;;;;;;;0.90;0.70;;;12.30;1.00;;;;;;5023334;28;20196;-76
2023/11/02 00:52:18;;;;;;;0.60;0.60;;;12.30;1.00;;;;;;5015031;28;20420;-76
2023/11/02 00:55:00;;;;;;;0.60;0.60;;;12.40;1.00;;;;;;5014783;28;20481;-76
2023/11/02 00:57:38;;;;;;;1.00;0.70;;;12.40;1.00;;;;;;5018632;28;20428;-76
2023/11/02 01:00:48;;;;;;;0.80;0.60;;;12.40;1.00;;;;;;5015925;28;20471;-76
2023/11/02 01:10:01;;;;;;;5.17;1.17;;;12.50;1.00;;;;;;5006017;28;20416;-80
2023/11/02 01:12:47;;;;;;;2.30;0.60;;;12.50;1.00;;;;;;5039973;28;20450;-80
2023/11/02 01:18:35;;;;;;;0.80;0.70;;;12.70;1.00;;;;;;5031536;28;20442;-80
2023/11/02 01:21:06;;;;;;;3.63;0.70;;;12.80;1.00;;;;;;5007582;28;20432;-80
2023/11/02 01:23:59;;;;;;;0.60;0.60;;;12.70;1.00;;;;;;5011997;28;20458;-80
2023/11/02 01:27:05;;;;;;;0.50;0.50;;;12.70;1.00;;;;;;5013378;28;20416;-79
2023/11/02 01:32:54;;;;;;;8.80;1.10;;;12.70;1.00;;;;;;5013969;28;20771;-80
2023/11/02 01:35:44;;;;;;;0.60;0.60;;;12.70;1.00;;;;;;5021316;28;20818;-80
2023/11/02 01:38:13;;;;;;;4.83;0.80;;;12.60;1.00;;;;;;5026152;28;20443;-80
2023/11/02 01:40:46;;;;;;;3.60;1.10;;;12.40;1.00;;;;;;5024068;28;20446;-80
2023/11/02 01:43:17;;;;;;;3.00;0.73;;;12.40;1.00;;;;;;5013833;28;21006;-80
2023/11/02 01:52:54;;;;;;;0.97;0.70;;;12.10;1.00;;;;;;4994601;28;20395;-80
2023/11/02 01:58:56;;;;;;;4.50;0.90;;;11.90;1.00;;;;;;5025946;28;20404;-80
2023/11/02 02:08:24;;;;;;;11.63;1.10;;;11.50;1.00;;;;;;5012507;28;20394;-80
2023/11/02 02:11:19;;;;;;;2.00;0.80;;;11.40;1.00;;;;;;5019058;28;20418;-80
2023/11/02 02:14:13;;;;;;;3.37;0.67;;;11.40;1.00;;;;;;5025985;28;20415;-80
2023/11/02 02:17:23;;;;;;;3.70;0.83;;;11.30;1.00;;;;;;5022063;28;20478;-80
2023/11/02 02:20:11;;;;;;;0.83;0.80;;;11.20;1.00;;;;;;5010745;28;20423;-76
2023/11/02 02:22:43;;;;;;;3.47;0.83;;;11.20;1.00;;;;;;5023117;28;20377;-76
2023/11/02 02:25:42;;;;;;;0.77;0.60;;;11.20;1.00;;;;;;5023341;28;20427;-76
2023/11/02 02:28:32;;;;;;;0.90;0.73;;;11.20;1.00;;;;;;5024394;28;20427;-76
2023/11/02 02:31:32;;;;;;;1.33;0.60;;;11.30;1.00;;;;;;5024006;28;20430;-76
2023/11/02 02:34:22;;;;;;;0.70;0.60;;;11.20;1.00;;;;;;5004209;28;20503;-76
2023/11/02 02:37:02;;;;;;;2.20;0.63;;;11.20;1.00;;;;;;5036478;28;20407;-76
2023/11/02 02:39:36;;;;;;;1.23;0.70;;;11.30;1.00;;;;;;5023904;28;20447;-77
2023/11/02 02:45:26;;;;;;;1.67;0.70;;;11.30;1.00;;;;;;5024030;28;20446;-76
2023/11/02 02:47:58;;;;;;;2.60;0.70;;;11.30;1.00;;;;;;5033523;28;20464;-76
2023/11/02 02:50:50;;;;;;;4.33;0.80;;;11.30;1.00;;;;;;5010023;28;20450;-75
2023/11/02 02:53:54;;;;;;;3.80;0.60;;;11.40;1.00;;;;;;5024470;28;20882;-76
2023/11/02 02:56:25;;;;;;;1.20;0.70;;;11.40;1.00;;;;;;5023252;28;20404;-76
2023/11/02 02:59:03;;;;;;;0.77;0.77;;;11.40;1.00;;;;;;5024002;28;20763;-75
2023/11/02 03:01:47;;;;;;;1.30;0.70;;;11.40;1.00;;;;;;5001353;28;20765;-75
2023/11/02 03:04:16;;;;;;;1.37;0.70;;;11.40;1.00;;;;;;5030194;28;20418;-75
2023/11/02 03:06:50;;;;;;;1.03;0.70;;;11.40;1.00;;;;;;4997788;28;20878;-75
2023/11/02 03:10:11;;;;;;;0.50;0.50;;;11.50;1.00;;;;;;5001017;28;20451;-75
2023/11/02 03:13:01;;;;;;;4.50;0.67;;;11.50;1.00;;;;;;5023825;28;20411;-75
2023/11/02 03:15:30;;;;;;;2.63;0.73;;;11.50;1.00;;;;;;5029939;28;20489;-75
2023/11/02 03:18:10;;;;;;;1.00;1.00;;;11.50;1.00;;;;;;5034462;28;20396;-76
2023/11/02 03:21:17;;;;;;;0.90;0.60;;;11.40;1.00;;;;;;5028775;28;20505;-75
2023/11/02 03:24:24;;;;;;;0.63;0.60;;;11.50;1.00;;;;;;5019357;28;20537;-75
2023/11/02 03:26:57;;;;;;;1.80;0.67;;;11.50;1.00;;;;;;5009154;28;20450;-75
2023/11/02 03:30:09;;;;;;;0.70;0.70;;;11.40;1.00;;;;;;5023436;28;20426;-75
2023/11/02 03:32:55;;;;;;;7.23;0.67;;;11.50;1.00;;;;;;5017823;28;20462;-77
2023/11/02 03:35:35;;;;;;;8.53;0.90;;;11.40;1.00;;;;;;5000329;28;20431;-75
2023/11/02 03:38:30;;;;;;;4.30;0.77;;;11.40;1.00;;;;;;5025554;28;20522;-75
2023/11/02 03:41:18;;;;;;;1.80;0.70;;;11.40;1.00;;;;;;5016487;28;20461;-75
2023/11/02 03:44:08;;;;;;;2.00;0.60;;;11.50;1.00;;;;;;5017758;28;20466;-76
2023/11/02 03:47:17;;;;;;;1.00;0.80;;;11.60;1.00;;;;;;5014485;28;20410;-76
2023/11/02 03:50:26;;;;;;;1.77;0.80;;;11.50;1.00;;;;;;5030550;28;20408;-76
2023/11/02 03:53:21;;;;;;;0.70;0.70;;;11.60;1.00;;;;;;5007968;28;20432;-76
2023/11/02 03:56:17;;;;;;;6.90;0.83;;;11.60;1.00;;;;;;5025308;28;20926;-75
2023/11/02 03:59:22;;;;;;;0.70;0.60;;;11.60;1.00;;;;;;5028832;28;20441;-75
2023/11/02 04:02:01;;;;;;;4.30;0.93;;;11.70;1.00;;;;;;5014401;28;20387;-75
2023/11/02 04:04:39;;;;;;;7.10;0.97;;;11.70;1.00;;;;;;5022843;28;20469;-78
2023/11/02 04:07:22;;;;;;;0.67;0.67;;;11.80;1.00;;;;;;5011968;28;20523;-79
2023/11/02 04:10:02;;;;;;;3.43;0.70;;;11.80;1.00;;;;;;5022388;28;20431;-79
2023/11/02 04:12:56;;;;;;;1.20;0.70;;;11.90;1.00;;;;;;5020711;28;20954;-79
2023/11/02 04:15:42;;;;;;;3.43;0.70;;;11.90;1.00;;;;;;5045446;28;20419;-80
2023/11/02 04:18:29;;;;;;;0.60;0.60;;;11.90;1.00;;;;;;5016215;28;20404;-78
2023/11/02 04:24:59;;;;;;;1.47;0.83;;;12.00;1.00;;;;;;5015416;28;20460;-80
2023/11/02 04:27:25;;;;;;;1.60;0.70;;;12.00;1.00;;;;;;5020645;28;20447;-84
2023/11/02 04:33:30;;;;;;;3.87;0.70;;;12.10;1.00;;;;;;5016115;28;20264;-81
2023/11/02 04:36:47;;;;;;;6.00;0.63;;;12.20;1.00;;;;;;5013378;28;20436;-85
2023/11/02 04:46:41;;;;;;;0.60;0.60;;;12.10;1.00;;;;;;5015965;28;20480;-79
2023/11/02 04:49:13;;;;;;;2.10;0.70;;;12.10;1.00;;;;;;5017732;28;20439;-73
2023/11/02 04:51:38;;;;;;;1.10;0.67;;;12.10;1.00;;;;;;5019811;28;20426;-73
2023/11/02 04:54:04;;;;;;;2.80;0.70;;;12.00;1.00;;;;;;5015050;28;20926;-73
2023/11/02 04:56:30;;;;;;;1.87;0.73;;;12.10;1.00;;;;;;5017370;28;20200;-72
2023/11/02 04:58:56;;;;;;;5.70;0.70;;;12.10;1.00;;;;;;5028583;28;20378;-73
2023/11/02 05:01:22;;;;;;;0.70;0.60;;;12.10;1.00;;;;;;5016518;28;20181;-73
2023/11/02 05:07:33;;;;;;;0.70;0.60;;;12.00;1.00;;;;;;5023464;28;20798;-79
2023/11/02 05:16:43;;;;;;;4.20;0.60;;;11.90;1.00;;;;;;5027754;28;20434;-80
2023/11/02 05:19:12;;;;;;;0.60;0.60;;;11.80;1.00;;;;;;5019991;28;20393;-73
2023/11/02 05:21:42;;;;;;;2.60;0.60;;;11.80;1.00;;;;;;5010779;28;20231;-73
2023/11/02 05:24:10;;;;;;;0.80;0.60;;;11.70;1.00;;;;;;5021400;28;20512;-73
2023/11/02 05:26:37;;;;;;;3.37;1.17;;;11.70;1.00;;;;;;5020298;28;20459;-73
2023/11/02 05:32:25;;;;;;;0.87;0.73;;;11.60;1.00;;;;;;5013984;28;20399;-77
2023/11/02 05:38:12;;;;;;;2.20;0.80;;;11.50;1.00;;;;;;5019575;28;20195;-80
2023/11/02 05:40:54;;;;;;;1.23;0.70;;;11.40;1.00;;;;;;5014286;28;20780;-81
2023/11/02 05:43:30;;;;;;;0.90;0.73;;;11.30;1.00;;;;;;5002200;28;20209;-85
2023/11/02 05:46:23;;;;;;;1.07;0.60;;;11.30;1.00;;;;;;5009818;28;20416;-84
2023/11/02 05:48:54;;;;;;;1.20;0.90;;;11.10;1.00;;;;;;5025746;28;20434;-78
2023/11/02 05:51:20;;;;;;;2.17;0.67;;;11.10;1.00;;;;;;5011902;28;20921;-73
2023/11/02 05:53:48;;;;;;;1.93;0.97;;;11.10;1.00;;;;;;5024836;28;20468;-73
2023/11/02 05:56:15;;;;;;;4.73;0.77;;;11.00;1.00;;;;;;5019262;28;20190;-73
2023/11/02 05:58:46;;;;;;;5.90;1.17;;;10.90;1.00;;;;;;5012734;28;20432;-73
2023/11/02 06:01:12;;;;;;;1.57;0.70;;;10.90;1.00;;;;;;5015531;28;20423;-73
2023/11/02 06:03:38;;;;;;;1.77;1.10;;;;;;;;;;5012260;28;20867;-73
2023/11/02 06:06:06;;;;;;;1.53;0.87;;;;;;;;;;5016466;28;20195;-73
2023/11/02 06:08:31;;;;;;;3.60;0.70;;;10.80;1.00;;;;;;5017547;28;20805;-73
2023/11/02 06:11:00;;;;;;;0.70;0.70;;;10.80;1.00;;;;;;5019825;28;20428;-73
2023/11/02 06:17:41;;;;;;;1.00;0.60;;;10.80;1.00;;;;;;5013688;28;20437;-82
2023/11/02 06:23:38;;;;;;;1.10;0.70;;;10.80;1.00;;;;;;5012340;28;20858;-78
2023/11/02 06:26:12;;;;;;;0.90;0.80;;;10.70;1.00;;;;;;5015650;28;20554;-78
2023/11/02 06:31:59;;;;;;;0.70;0.70;;;;;;;;;;5009928;28;20506;-77
2023/11/02 06:34:25;;;;;;;0.73;0.60;;;10.70;1.00;;;;;;5011422;28;20854;-77
2023/11/02 06:37:11;;;;;;;2.20;0.70;;;10.60;1.00;;;;;;5007181;28;20515;-78
2023/11/02 06:39:37;;;;;;;3.10;0.80;;;10.70;1.00;;;;;;5002730;28;20193;-78
2023/11/02 06:42:53;;;;;;;0.80;0.73;;;10.70;1.00;;;;;;5017584;28;20449;-78
2023/11/02 06:49:00;;;;;;;4.70;0.97;;;10.80;1.00;;;;;;5014074;28;20399;-88
2023/11/02 06:58:10;;;;;;;1.00;0.80;;;10.60;1.00;;;;;;5029535;28;20434;-87
2023/11/02 07:00:42;;;;;;;3.40;1.00;;;10.70;1.00;;;;;;5012522;28;20419;-87
2023/11/02 07:06:30;;;;;;;3.37;0.70;;;10.70;1.00;;;;;;5010533;28;20430;-85
2023/11/02 07:09:06;;;;;;;2.73;0.97;;;;;;;;;;5012544;28;20431;-85
2023/11/02 07:12:06;;;;;;;1.63;1.00;;;10.70;1.00;;;;;;5009751;28;20220;-85
2023/11/02 07:14:48;;;;;;;1.50;1.00;;;10.70;1.00;;;;;;5026845;28;20427;-85
2023/11/02 07:20:38;;;;;;;2.30;0.90;;;10.70;1.00;;;;;;5022779;28;20415;-87
2023/11/02 07:29:47;;;;;;;0.97;0.70;;;10.70;2.60;;;;;;5017353;28;20466;-86
2023/11/02 07:35:36;;;;;;;0.90;0.90;;;10.80;1.00;;;;;;5012100;28;20188;-84
2023/11/02 07:38:01;;;;;;;0.60;0.60;;;10.80;1.00;;;;;;5014506;28;20436;-83
2023/11/02 07:40:59;;;;;;;1.43;1.00;;;10.80;1.00;;;;;;5012351;28;20485;-82
2023/11/02 07:46:48;;;;;;;0.90;0.57;;;;;;;;;;5008178;28;20425;-83
2023/11/02 07:52:37;;;;;;;0.73;0.67;;;10.80;1.00;;;;;;5009620;28;20459;-71
2023/11/02 07:55:03;;;;;;;2.50;0.80;;;10.90;1.00;;;;;;5013297;28;20941;-71
2023/11/02 07:57:29;;;;;;;1.87;0.63;;;10.90;1.00;;;;;;5011315;28;21002;-71
2023/11/02 07:59:54;;;;;;;0.60;0.60;;;11.00;1.00;;;;;;5018394;28;20444;-71
2023/11/02 08:02:21;;;;;;;0.90;0.70;;;;;;;;;;5009147;28;20267;-71
2023/11/02 08:04:47;;;;;;;0.80;0.80;;;11.00;1.00;;;;;;5005464;28;20225;-71
2023/11/02 08:07:18;;;;;;;1.00;0.80;;;11.20;1.00;;;;;;5015172;28;20437;-75
2023/11/02 08:09:44;;;;;;;1.87;0.73;;;11.10;1.00;;;;;;5021116;28;20423;-75
2023/11/02 08:12:25;;;;;;;0.80;0.70;;;11.20;1.00;;;;;;5009030;28;20428;-75
2023/11/02 08:14:54;;;;;;;1.27;0.70;;;11.30;1.00;;;;;;5018515;28;20651;-75
2023/11/02 08:17:30;;;;;;;4.07;1.30;;;11.20;1.00;;;;;;5014598;28;20942;-75
2023/11/02 08:20:07;;;;;;;0.60;0.60;;;11.30;1.00;;;;;;5009352;28;20928;-76
2023/11/02 08:22:36;;;;;;;0.70;0.70;;;11.30;1.00;;;;;;5014038;28;20454;-75
2023/11/02 08:25:08;;;;;;;1.43;0.70;;;11.40;1.00;;;;;;5013228;28;20441;-75
2023/11/02 08:27:33;;;;;;;0.73;0.73;;;11.40;1.00;;;;;;5021033;28;20927;-74
2023/11/02 08:30:00;;;;;;;0.70;0.60;;;11.40;1.00;;;;;;5013212;28;20518;-74
2023/11/02 08:32:26;;;;;;;3.47;0.70;;;11.40;1.00;;;;;;5010913;28;20220;-75
2023/11/02 08:34:52;;;;;;;2.30;0.77;;;11.70;1.00;;;;;;5013399;28;20440;-74
2023/11/02 08:37:17;;;;;;;0.93;0.70;;;11.40;1.00;;;;;;5015398;28;20192;-74
2023/11/02 08:39:48;;;;;;;2.40;0.77;;;11.40;1.00;;;;;;5010348;28;20444;-75
2023/11/02 08:42:18;;;;;;;2.67;0.70;;;11.50;1.00;;;;;;5017541;28;20177;-75
2023/11/02 08:48:07;;;;;;;1.20;0.63;;;11.60;1.00;;;;;;5019272;28;20449;-74
2023/11/02 08:50:37;;;;;;;0.73;0.73;;;11.70;1.00;;;;;;5017207;28;20869;-75
2023/11/02 08:53:03;;;;;;;1.23;0.70;;;11.60;1.00;;;;;;5022669;28;20811;-71
2023/11/02 08:55:29;;;;;;;1.03;0.93;;;11.80;1.00;;;;;;5008574;28;20435;-71
2023/11/02 08:57:55;;;;;;;2.50;0.70;;;11.80;1.00;;;;;;5007018;28;20483;-71
2023/11/02 09:00:21;;;;;;;0.60;0.60;;;11.80;1.00;;;;;;5005872;28;20603;-71
2023/11/02 09:02:46;;;;;;;0.60;0.60;;;12.00;1.00;;;;;;5008777;28;20197;-72
2023/11/02 09:05:12;;;;;;;1.10;0.63;;;12.00;1.00;;;;;;5027001;28;20463;-71
2023/11/02 09:07:48;;;;;;;0.50;0.50;;;12.10;1.00;;;;;;5009003;28;20185;-74
2023/11/02 09:10:24;;;;;;;1.00;0.60;;;12.00;1.00;;;;;;5022415;28;20713;-76
2023/11/02 09:12:50;;;;;;;1.67;0.60;;;12.30;1.00;;;;;;5004914;28;21071;-75
2023/11/02 09:15:16;;;;;;;0.63;0.60;;;12.30;1.00;;;;;;5010131;28;20430;-75
2023/11/02 09:17:42;;;;;;;0.60;0.60;;;12.40;1.00;;;;;;5009501;28;20176;-74
2023/11/02 09:23:32;;;;;;;0.90;0.70;;;12.70;1.00;;;;;;5025602;28;20511;-84
2023/11/02 09:29:30;;;;;;;1.27;0.73;;;12.80;1.00;;;;;;5015487;28;20439;-83
2023/11/02 09:32:47;;;;;;;0.60;0.60;;;12.80;1.00;;;;;;5002629;28;20789;-83
2023/11/02 09:38:56;;;;;;;0.80;0.80;;;13.00;1.00;;;;;;5010840;28;20460;-86
2023/11/02 09:42:17;;;;;;;0.60;0.60;;;13.00;1.00;;;;;;5009399;28;21007;-86
2023/11/02 09:51:36;;;;;;;0.60;0.57;;;13.00;1.00;;;;;;5015396;28;20426;-86
2023/11/02 09:54:12;;;;;;;0.60;0.60;;;12.90;1.00;;;;;;5011076;28;20480;-74
2023/11/02 09:56:39;;;;;;;2.20;0.60;;;12.90;1.00;;;;;;5010697;28;20478;-72
2023/11/02 09:59:06;;;;;;;0.60;0.60;;;12.80;1.00;;;;;;5015133;28;20409;-72
2023/11/02 10:01:32;;;;;;;1.73;0.63;;;13.00;1.00;;;;;;5026606;28;20443;-72
2023/11/02 10:03:58;;;;;;;2.40;0.67;;;13.00;1.00;;;;;;5009047;28;20430;-72
2023/11/02 10:06:25;;;;;;;0.60;0.50;;;13.00;1.00;;;;;;5010202;28;20495;-72
2023/11/02 10:08:54;;;;;;;0.63;0.50;;;13.00;1.00;;;;;;5023631;28;20405;-76
2023/11/02 10:11:31;;;;;;;0.50;0.50;;;13.10;1.00;;;;;;5006518;28;20431;-76
2023/11/02 10:14:04;;;;;;;0.60;0.40;;;13.10;1.00;;;;;;5007519;28;20409;-77
2023/11/02 10:16:42;;;;;;;0.50;0.40;;;13.30;1.00;;;;;;5010610;28;20414;-77
2023/11/02 10:19:12;;;;;;;0.50;0.50;;;13.40;1.00;;;;;;5007107;28;20530;-77
2023/11/02 10:21:41;;;;;;;0.50;0.47;;;13.50;1.00;;;;;;5026392;28;20411;-75
2023/11/02 10:24:31;;;;;;;2.30;0.50;;;13.60;1.00;;;;;;5004948;28;20477;-76
2023/11/02 10:27:15;;;;;;;2.97;0.47;;;13.70;1.00;;;;;;5014531;28;20924;-76
2023/11/02 10:29:50;;;;;;;1.37;0.70;;;13.90;1.00;;;;;;5012311;28;20413;-77
2023/11/02 10:32:42;;;;;;;2.60;0.90;;;13.90;1.00;;;;;;5011095;28;20413;-76
2023/11/02 10:35:18;;;;;;;5.13;0.47;;;13.90;1.00;;;;;;4995562;28;20482;-76
2023/11/02 10:37:44;;;;;;;1.03;0.60;;;14.00;1.00;;;;;;5010117;28;20452;-73
2023/11/02 10:40:10;;;;;;;0.60;0.43;;;14.20;1.00;;;;;;5009104;28;21478;-72
2023/11/02 10:42:39;;;;;;;0.50;0.50;;;14.20;1.00;;;;;;5011168;28;20411;-72
2023/11/02 10:45:19;;;;;;;0.50;0.50;;;14.30;1.00;;;;;;5006772;28;20913;-73
2023/11/02 10:47:46;;;;;;;0.40;0.40;;;14.30;1.00;;;;;;5006311;28;20410;-72
2023/11/02 10:50:15;;;;;;;0.50;0.40;;;14.20;1.00;;;;;;5013236;28;20506;-72
2023/11/02 10:52:48;;;;;;;0.50;0.50;;;14.20;1.00;;;;;;5004959;28;20461;-73
2023/11/02 10:55:21;;;;;;;0.67;0.60;;;14.20;1.00;;;;;;5007165;28;20478;-73
2023/11/02 10:57:48;;;;;;;0.67;0.50;;;14.30;1.00;;;;;;5010344;28;20527;-72
2023/11/02 11:00:26;;;;;;;3.70;0.70;;;14.20;1.00;;;;;;5025596;28;20734;-72
2023/11/02 11:02:53;;;;;;;0.50;0.40;;;14.20;1.00;;;;;;5020632;28;20427;-73
2023/11/02 11:05:26;;;;;;;1.83;0.50;;;14.20;1.00;;;;;;5024652;28;20449;-72
2023/11/02 11:08:02;;;;;;;1.90;0.60;;;14.20;1.00;;;;;;5012013;28;20398;-72
2023/11/02 11:10:31;;;;;;;1.13;0.60;;;14.00;1.00;;;;;;5010608;28;20456;-72
2023/11/02 11:13:01;;;;;;;1.27;0.53;;;13.90;1.00;;;;;;5011569;28;20509;-72
2023/11/02 11:15:28;;;;;;;0.50;0.50;;;13.90;1.00;;;;;;5014378;28;20436;-73
2023/11/02 11:17:55;;;;;;;0.60;0.50;;;13.90;1.00;;;;;;5016988;28;20451;-73
2023/11/02 11:20:22;;;;;;;0.80;0.50;;;13.90;1.00;;;;;;5009031;28;20921;-72
2023/11/02 11:22:50;;;;;;;0.77;0.60;;;14.00;1.00;;;;;;5012711;28;20395;-73
2023/11/02 11:26:02;;;;;;;0.60;0.47;;;13.90;1.00;;;;;;5030221;28;20447;-75
2023/11/02 11:31:57;;;;;;;0.80;0.60;;;13.80;1.00;;;;;;5027633;28;20378;-76
2023/11/02 11:34:23;;;;;;;0.93;0.77;;;13.70;1.00;;;;;;5015080;28;20417;-76
2023/11/02 11:36:49;;;;;;;0.60;0.50;;;13.70;1.00;;;;;;5012391;28;20406;-76
2023/11/02 11:39:52;;;;;;;1.77;0.70;;;13.70;1.00;;;;;;5013877;28;20443;-73
2023/11/02 11:43:00;;;;;;;0.40;0.40;;;13.70;1.00;;;;;;4970015;28;20202;-73
2023/11/02 11:45:43;;;;;;;0.90;0.60;;;13.60;1.00;;;;;;4953386;28;20880;-73
2023/11/02 11:48:10;;;;;;;0.80;0.80;;;13.60;1.00;;;;;;4961859;28;20445;-73
2023/11/02 11:50:40;;;;;;;1.20;0.63;;;13.60;1.00;;;;;;4969055;28;20429;-72
2023/11/02 11:53:19;;;;;;;0.50;0.50;;;13.60;1.00;;;;;;4969963;28;20464;-72
2023/11/02 11:55:56;;;;;;;0.50;0.50;;;13.60;1.00;;;;;;4962702;28;20766;-76
2023/11/02 11:58:44;;;;;;;1.33;0.60;;;13.60;1.00;;;;;;4981541;28;20922;-77
2023/11/02 12:01:17;;;;;;;8.23;0.60;;;13.60;1.00;;;;;;4964708;28;20430;-77
2023/11/02 12:03:48;;;;;;;3.23;0.60;;;13.50;1.00;;;;;;4962842;28;20477;-76
2023/11/02 12:06:46;;;;;;;0.90;0.67;;;13.50;1.00;;;;;;4971323;28;20408;-76
2023/11/02 12:09:25;;;;;;;0.50;0.50;;;13.50;1.00;;;;;;4949588;28;20438;-72
2023/11/02 12:11:51;;;;;;;0.70;0.70;;;13.50;1.00;;;;;;4948609;29;20521;-72
2023/11/02 12:14:19;;;;;;;1.73;0.60;;;13.50;1.00;;;;;;4953249;28;20869;-72
2023/11/02 12:16:51;;;;;;;0.60;0.60;;;13.50;1.00;;;;;;4943931;29;20217;-72
2023/11/02 12:19:17;;;;;;;0.60;0.57;;;13.50;1.00;;;;;;4952760;28;21017;-73
2023/11/02 12:22:10;;;;;;;2.60;0.60;;;13.50;1.00;;;;;;4949234;28;20537;-73
2023/11/02 12:25:17;;;;;;;3.03;0.60;;;13.60;1.00;;;;;;4935165;29;20507;-76
2023/11/02 12:27:55;;;;;;;2.43;0.57;;;13.60;1.00;;;;;;4930519;29;20439;-75
2023/11/02 12:30:24;;;;;;;1.73;0.67;;;13.60;1.00;;;;;;4932672;29;20531;-76
2023/11/02 12:33:19;;;;;;;1.40;0.60;;;13.60;1.00;;;;;;4934562;29;20490;-76
2023/11/02 12:36:18;;;;;;;2.57;0.77;;;13.60;1.00;;;;;;4928920;29;20971;-75
2023/11/02 12:39:00;;;;;;;1.07;0.80;;;13.50;1.00;;;;;;4929814;29;20530;-76
2023/11/02 12:41:33;;;;;;;0.60;0.60;;;13.60;1.00;;;;;;4934244;29;20455;-72
2023/11/02 12:44:09;;;;;;;1.07;0.60;;;13.60;1.00;;;;;;4933766;29;20446;-73
2023/11/02 12:46:44;;;;;;;0.83;0.50;;;13.60;1.00;;;;;;4949327;28;20455;-73
2023/11/02 12:49:21;;;;;;;0.60;0.60;;;13.60;1.00;;;;;;4956148;28;20419;-72
2023/11/02 12:51:54;;;;;;;8.73;0.90;;;13.70;1.00;;;;;;4952020;29;20442;-73
2023/11/02 12:54:34;;;;;;;4.80;0.70;;;13.70;1.00;;;;;;4955964;28;20538;-74
2023/11/02 12:57:05;;;;;;;0.47;0.47;;;13.70;1.00;;;;;;4952487;29;20437;-78
2023/11/02 12:59:54;;;;;;;0.80;0.57;;;13.70;1.00;;;;;;4950175;28;20427;-77
2023/11/02 13:02:30;;;;;;;0.70;0.60;;;13.70;1.00;;;;;;5017643;28;20432;-77
2023/11/02 13:08:19;;;;;;;2.30;0.60;;;13.70;1.00;;;;;;5014310;28;20957;-77
2023/11/02 13:10:45;;;;;;;0.70;0.53;;;13.70;1.00;;;;;;5013104;28;20469;-73
2023/11/02 13:13:12;;;;;;;8.43;0.80;;;13.70;1.00;;;;;;5006351;28;20834;-73
2023/11/02 13:15:54;;;;;;;9.03;0.87;;;13.70;1.00;;;;;;5013272;28;20885;-73
2023/11/02 13:18:20;;;;;;;5.97;0.70;;;13.70;1.00;;;;;;5009854;28;20937;-73
2023/11/02 13:20:48;;;;;;;1.60;0.50;;;13.70;1.00;;;;;;5011886;28;20421;-73
2023/11/02 13:23:14;;;;;;;19.47;8.80;;;13.50;1.00;;;;;;5018258;28;20262;-72
2023/11/02 13:26:00;;;;;;;469.20;221.30;;;13.50;1.00;;;;;;5001910;28;20829;-78
2023/11/02 13:28:25;;;;;;;2.20;0.90;;;13.50;1.00;;;;;;5006975;28;20165;-78
2023/11/02 13:31:00;;;;;;;1.43;0.73;;;13.50;1.00;;;;;;5013435;28;20422;-78
2023/11/02 13:34:00;;;;;;;1.37;0.60;;;13.50;1.00;;;;;;5007047;28;20643;-78
2023/11/02 13:37:00;;;;;;;4.20;0.70;;;13.50;1.00;;;;;;5012737;28;20522;-77
2023/11/02 13:39:54;;;;;;;2.73;0.70;;;13.50;1.00;;;;;;5009480;28;20815;-78
2023/11/02 13:42:19;;;;;;;1.10;0.63;;;13.60;1.00;;;;;;5004367;28;20407;-79
2023/11/02 13:45:00;;;;;;;0.60;0.50;;;13.60;1.00;;;;;;5018899;28;20513;-79
2023/11/02 13:47:42;;;;;;;1.97;0.60;;;13.60;1.00;;;;;;5022048;28;20579;-78
2023/11/02 13:51:00;;;;;;;0.70;0.70;;;13.60;1.00;;;;;;5002022;28;20516;-78
2023/11/02 13:56:47;;;;;;;0.77;0.40;;;13.60;1.00;;;;;;5025142;28;20462;-78
2023/11/02 13:59:30;;;;;;;4.23;0.70;;;13.60;1.00;;;;;;5022040;28;20963;-77
2023/11/02 14:05:30;;;;;;;0.83;0.60;;;13.60;1.00;;;;;;5015863;28;20470;-77
2023/11/02 14:08:32;;;;;;;4.33;0.50;;;13.40;1.00;;;;;;5028600;28;20418;-78
2023/11/02 14:11:42;;;;;;;2.20;0.80;;;13.50;1.00;;;;;;5017928;28;20934;-78
2023/11/02 14:18:00;;;;;;;0.57;0.57;;;13.40;1.00;;;;;;5011821;28;20852;-78
2023/11/02 14:20:31;;;;;;;0.53;0.53;;;13.30;1.00;;;;;;5011517;28;20399;-78
2023/11/02 14:23:00;;;;;;;2.00;0.60;;;13.30;1.00;;;;;;5026607;28;20400;-78
2023/11/02 14:25:30;;;;;;;6.23;0.73;;;13.30;1.00;;;;;;5015913;28;20441;-74
2023/11/02 14:28:00;;;;;;;0.90;0.67;;;13.30;1.00;;;;;;5019400;28;20528;-72
2023/11/02 14:30:26;;;;;;;2.33;0.50;;;13.40;1.00;;;;;;5016053;28;20482;-72
2023/11/02 14:32:54;;;;;;;4.40;0.60;;;13.40;1.00;;;;;;5028947;28;20401;-73
2023/11/02 14:35:25;;;;;;;1.10;0.60;;;13.30;1.00;;;;;;5017563;28;20455;-74
2023/11/02 14:37:50;;;;;;;1.53;0.90;;;13.40;1.00;;;;;;5025503;28;20441;-73
2023/11/02 14:40:25;;;;;;;1.40;1.30;;;13.30;1.00;;;;;;5016270;28;20448;-73
2023/11/02 14:43:04;;;;;;;0.63;0.60;;;13.30;1.00;;;;;;5012556;28;20255;-77
2023/11/02 14:45:31;;;;;;;0.80;0.60;;;13.30;1.00;;;;;;5030121;28;20519;-78
2023/11/02 14:48:09;;;;;;;3.73;0.77;;;13.10;1.00;;;;;;5009812;28;20424;-78
2023/11/02 14:51:06;;;;;;;1.07;0.50;;;13.10;1.00;;;;;;5027829;28;20903;-78
2023/11/02 14:53:54;;;;;;;1.37;0.50;;;13.20;1.00;;;;;;5019552;28;20431;-78
2023/11/02 14:56:30;;;;;;;1.00;0.60;;;13.20;1.00;;;;;;5019182;28;20448;-76
2023/11/02 14:58:56;;;;;;;0.87;0.53;;;13.20;1.00;;;;;;5018912;28;20424;-75
2023/11/02 15:01:31;;;;;;;4.93;0.70;;;13.10;1.00;;;;;;5019482;28;20798;-77
2023/11/02 15:04:00;;;;;;;1.00;0.60;;;13.00;1.00;;;;;;5023185;28;20424;-76
2023/11/02 15:07:00;;;;;;;8.40;0.70;;;13.10;1.00;;;;;;5015320;28;20496;-75
2023/11/02 15:13:00;;;;;;;3.80;0.73;;;12.90;1.00;;;;;;5014329;28;20346;-87
2023/11/02 15:15:30;;;;;;;2.97;0.63;;;12.90;1.00;;;;;;5011539;28;20946;-84
2023/11/02 15:17:56;;;;;;;0.87;0.50;;;12.80;1.00;;;;;;5012875;28;20378;-86
2023/11/02 15:20:36;;;;;;;1.47;0.70;;;12.80;1.00;;;;;;5004266;28;20445;-85
2023/11/02 15:26:30;;;;;;;1.00;0.50;;;12.80;1.00;;;;;;5007731;28;20421;-87
2023/11/02 15:29:30;;;;;;;2.33;1.10;;;12.80;1.00;;;;;;5012498;28;20501;-84
2023/11/02 15:32:01;;;;;;;4.77;0.83;;;12.80;1.00;;;;;;5010816;28;20514;-88
2023/11/02 15:37:49;;;;;;;1.00;0.50;;;12.80;1.00;;;;;;5013480;28;20468;-87
2023/11/02 15:40:43;;;;;;;0.60;0.60;;;12.60;1.00;;;;;;5009261;28;20411;-87
2023/11/02 15:44:00;;;;;;;1.87;0.63;;;12.60;1.00;;;;;;5014900;28;20184;-85
2023/11/02 15:47:00;;;;;;;0.80;0.50;;;12.60;1.00;;;;;;5028427;28;20423;-88
2023/11/02 15:49:26;;;;;;;1.33;0.63;;;12.60;1.00;;;;;;5008042;28;20518;-86
2023/11/02 15:55:30;;;;;;;4.30;0.80;;;;;;;;;;5018011;28;20262;-86
2023/11/02 15:58:30;;;;;;;0.60;0.50;;;12.50;1.00;;;;;;5018242;28;20836;-86
2023/11/02 16:01:30;;;;;;;0.50;0.43;;;12.40;1.00;;;;;;5018793;28;20447;-86
2023/11/02 16:04:01;;;;;;;0.50;0.50;;;;;;;;;;5014963;28;20455;-86
2023/11/02 16:10:01;;;;;;;0.60;0.60;;;12.40;1.00;;;;;;5015878;28;20419;-87
2023/11/02 16:19:12;;;;;;;1.27;0.50;;;12.40;1.00;;;;;;5015926;28;20414;-89
2023/11/02 16:22:00;;;;;;;1.80;0.70;;;12.30;1.00;;;;;;5007178;28;20435;-90
2023/11/02 16:24:30;;;;;;;0.80;0.60;;;12.30;1.00;;;;;;5015382;28;20520;-88
2023/11/02 16:27:00;;;;;;;2.10;0.80;;;12.30;1.00;;;;;;5027181;28;20423;-87
2023/11/02 16:30:00;;;;;;;0.93;0.60;;;12.30;1.00;;;;;;5019378;28;20486;-89
2023/11/02 16:33:00;;;;;;;1.43;0.63;;;12.30;1.00;;;;;;5011964;28;20420;-84
2023/11/02 16:35:30;;;;;;;1.20;0.50;;;12.30;1.00;;;;;;5009388;28;20410;-90
2023/11/02 16:37:56;;;;;;;1.30;0.60;;;12.30;1.00;;;;;;5012752;28;20460;-89
2023/11/02 16:40:21;;;;;;;3.10;0.80;;;12.30;1.00;;;;;;5015988;28;20463;-89
2023/11/02 16:42:47;;;;;;;3.50;0.50;;;12.20;1.00;;;;;;5012806;28;20268;-87
2023/11/02 16:45:13;;;;;;;3.43;0.50;;;12.20;1.00;;;;;;5013241;28;20608;-88
2023/11/02 16:47:40;;;;;;;0.70;0.60;;;12.20;1.00;;;;;;5035213;28;20259;-88
2023/11/02 16:51:00;;;;;;;0.90;0.50;;;12.20;1.00;;;;;;4997190;28;20483;-87
2023/11/02 16:53:30;;;;;;;4.53;0.77;;;12.20;1.00;;;;;;5020419;28;20526;-91